This is the latest recevied weather packets stored in our database for station/object UB3AVW-10. If no packets are shown the sender has not sent any weather packets the latest 1 day(s).
| Time | Temp. | Humidity | Pressure | Rain* | Wind** | Luminosity | Snow |
|---|---|---|---|---|---|---|---|
| 1778050288 | 18.89° C | 56% | 985.7 hPa | - | 4.92 m/s, 270° | - | - |
| 1778049984 | 17.78° C | 58% | 985.6 hPa | - | 5.36 m/s, 270° | - | - |
| 1778049681 | 17.78° C | 58% | 985.6 hPa | - | 5.36 m/s, 270° | - | - |
| 1778048771 | 17.78° C | 60% | 985.6 hPa | - | 5.81 m/s, 270° | - | - |
| 1778047862 | 18.33° C | 60% | 985.6 hPa | - | 5.81 m/s, 270° | - | - |
| 1778047559 | 18.33° C | 60% | 985.6 hPa | - | 4.92 m/s, 290° | - | - |
| 1778047256 | 17.78° C | 60% | 985.6 hPa | - | 4.92 m/s, 290° | - | - |
| 1778046953 | 17.78° C | 60% | 985.6 hPa | - | 4.92 m/s, 290° | - | - |
| 1778046650 | 17.78° C | 61% | 985.6 hPa | - | 4.92 m/s, 290° | - | - |
| 1778046346 | 17.78° C | 62% | 985.6 hPa | - | 4.92 m/s, 290° | - | - |
| 1778046043 | 17.78° C | 62% | 985.6 hPa | - | 4.92 m/s, 290° | - | - |
| 1778045740 | 17.78° C | 64% | 985.6 hPa | - | 4.92 m/s, 260° | - | - |
| 1778045505 | 17.78° C | 64% | 985.6 hPa | - | 4.92 m/s, 260° | - | - |
| 1778045437 | 17.78° C | 64% | 985.6 hPa | - | 4.92 m/s, 260° | - | - |
| 1778045133 | 17.78° C | 64% | 985.6 hPa | - | 4.92 m/s, 260° | - | - |
| 1778044830 | 17.78° C | 64% | 985.6 hPa | - | 4.92 m/s, 260° | - | - |
| 1778044527 | 16.11° C | 69% | 984.5 hPa | - | 4.92 m/s, 260° | - | - |
| 1778044224 | 16.11° C | 72% | 984.5 hPa | - | 4.92 m/s, 260° | - | - |
| 1778043685 | 16.11° C | 72% | 984.6 hPa | - | 4.92 m/s, 260° | - | - |
| 1778043618 | 16.11° C | 72% | 984.6 hPa | - | 4.92 m/s, 260° | - | - |
| 1778043313 | 16.11° C | 69% | 984.6 hPa | - | 4.92 m/s, 260° | - | - |
| 1778043010 | 15.56° C | 73% | 984.5 hPa | - | 4.92 m/s, 260° | - | - |
| 1778042401 | 15.56° C | 74% | 984.4 hPa | - | 3.13 m/s, 243° | - | - |
| 1778042098 | 15° C | 75% | 984.4 hPa | - | 3.13 m/s, 243° | - | - |
| 1778041864 | 15° C | 80% | 984.4 hPa | - | 3.13 m/s, 243° | - | - |
* Rain since midnight (hover to see other rain measurements)
** Current wind speed in m/s (hover to see current wind gust speed)